Time;durP1;ratioP1;P1;durP2;ratioP2;P2;SDS_P1;SDS_P2;PMS_P1;PMS_P2;Temp;Humidity;BMP_temperature;BMP_pressure;BME280_temperature;BME280_humidity;BME280_pressure;Samples;Min_cycle;Max_cycle;Signal;HPM_P1;HPM_P2
2023/05/11 00:02:04;;;;;;;11.52;8.48;;;;;;;19.45;61.70;101033.94;5024978;27;98934;-74
2023/05/11 00:04:31;;;;;;;12.75;8.27;;;;;;;19.48;61.45;101040.00;5023992;27;98867;-74
2023/05/11 00:06:57;;;;;;;10.10;7.40;;;;;;;19.38;61.78;101037.97;5025918;27;96887;-74
2023/05/11 00:09:25;;;;;;;11.90;8.15;;;;;;;19.48;61.82;101031.94;5024346;27;98544;-74
2023/05/11 00:11:51;;;;;;;13.30;8.48;;;;;;;19.52;61.53;101032.59;5020474;27;98243;-74
2023/05/11 00:14:18;;;;;;;11.38;8.18;;;;;;;19.36;62.14;101029.22;5017976;27;99144;-74
2023/05/11 00:16:44;;;;;;;13.90;8.05;;;;;;;19.29;62.31;101028.75;5026395;27;96870;-74
2023/05/11 00:19:10;;;;;;;10.48;8.20;;;;;;;19.19;62.83;101027.66;5013868;27;97829;-74
2023/05/11 00:21:37;;;;;;;10.57;8.25;;;;;;;19.11;62.96;101028.16;5024245;27;99549;-74
2023/05/11 00:24:04;;;;;;;12.52;8.50;;;;;;;19.16;62.75;101025.19;5022703;27;98802;-74
2023/05/11 00:26:31;;;;;;;10.48;8.10;;;;;;;19.31;62.22;101025.97;5021941;27;97369;-74
2023/05/11 00:28:58;;;;;;;14.23;7.80;;;;;;;19.05;63.06;101025.88;5029082;27;97746;-75
2023/05/11 00:31:24;;;;;;;15.90;8.55;;;;;;;19.09;62.89;101026.56;5027080;27;99378;-75
2023/05/11 00:33:50;;;;;;;9.88;8.00;;;;;;;19.09;63.15;101026.56;5016792;27;98165;-74
2023/05/11 00:36:17;;;;;;;10.90;8.95;;;;;;;19.08;63.09;101024.84;5022614;27;96916;-75
2023/05/11 00:38:43;;;;;;;14.48;8.88;;;;;;;19.21;62.49;101023.06;5027725;27;97403;-75
2023/05/11 00:41:09;;;;;;;13.73;9.20;;;;;;;19.10;62.41;101020.22;5027701;27;98990;-75
2023/05/11 00:43:37;;;;;;;17.67;8.25;;;;;;;19.09;62.40;101018.53;5021280;27;98546;-75
2023/05/11 00:46:04;;;;;;;10.15;8.00;;;;;;;19.15;62.54;101023.47;5029352;27;96841;-75
2023/05/11 00:48:31;;;;;;;12.73;8.55;;;;;;;18.99;62.88;101025.44;5023259;27;97058;-76
2023/05/11 00:50:59;;;;;;;12.10;8.27;;;;;;;18.96;63.16;101031.88;5030071;27;99355;-75
2023/05/11 00:53:25;;;;;;;12.73;8.43;;;;;;;19.12;62.51;101023.66;5025241;27;98918;-75
2023/05/11 00:55:52;;;;;;;14.23;8.98;;;;;;;19.05;62.51;101025.03;5016260;27;97272;-75
2023/05/11 00:58:18;;;;;;;12.13;8.52;;;;;;;19.10;62.24;101025.56;5026935;27;98480;-75
2023/05/11 01:00:46;;;;;;;11.60;8.48;;;;;;;18.98;62.33;101023.72;5025646;27;98971;-75
2023/05/11 01:03:14;;;;;;;10.80;8.63;;;;;;;19.03;62.25;101027.78;5027255;27;101237;-74
2023/05/11 01:05:44;;;;;;;10.55;8.32;;;;;;;18.94;62.50;101027.56;5016364;27;98565;-75
2023/05/11 01:08:17;;;;;;;11.23;8.38;;;;;;;18.87;62.94;101026.25;5025691;27;98888;-75
2023/05/11 01:10:53;;;;;;;13.93;8.88;;;;;;;18.76;63.55;101029.63;5020743;27;101362;-75
2023/05/11 01:13:30;;;;;;;10.40;8.70;;;;;;;18.94;62.85;101031.09;5017605;27;98826;-75
2023/05/11 01:15:58;;;;;;;10.65;8.57;;;;;;;18.85;62.87;101026.34;5029204;27;96894;-75
2023/05/11 01:18:28;;;;;;;11.77;8.02;;;;;;;18.93;62.53;101025.84;5023471;27;98967;-74
2023/05/11 01:20:58;;;;;;;9.48;8.50;;;;;;;18.80;63.06;101036.50;5028057;27;98850;-74
2023/05/11 01:23:57;;;;;;;14.82;8.98;;;;;;;18.79;63.45;101032.09;5028626;27;99012;-74
2023/05/11 01:26:36;;;;;;;10.93;8.60;;;;;;;18.57;64.13;101026.44;5020087;28;96881;-74
2023/05/11 01:29:20;;;;;;;12.98;8.63;;;;;;;18.62;64.15;101035.88;5024639;27;97293;-75
2023/05/11 01:31:49;;;;;;;17.48;8.90;;;;;;;18.76;63.23;101031.44;5021058;27;99114;-74
2023/05/11 01:34:18;;;;;;;10.95;7.97;;;;;;;18.64;63.74;101038.47;5027311;27;99140;-76
2023/05/11 01:36:50;;;;;;;12.95;8.68;;;;;;;18.79;62.95;101037.44;5016083;27;97590;-75
2023/05/11 01:39:21;;;;;;;13.25;9.18;;;;;;;18.94;62.23;101039.13;5022053;27;97199;-74
2023/05/11 01:41:52;;;;;;;10.63;8.10;;;;;;;19.16;61.29;101035.91;5018602;27;99265;-75
2023/05/11 01:44:20;;;;;;;15.55;9.27;;;;;;;19.46;60.15;101041.91;5020070;27;99113;-75
2023/05/11 01:46:50;;;;;;;15.52;8.88;;;;;;;19.11;60.59;101041.53;5023509;27;97192;-74
2023/05/11 01:49:17;;;;;;;10.30;8.65;;;;;;;19.40;59.70;101046.78;5022904;27;98331;-74
2023/05/11 01:51:48;;;;;;;12.70;8.48;;;;;;;19.14;60.50;101051.22;5021290;27;102277;-74
2023/05/11 01:54:16;;;;;;;9.95;7.53;;;;;;;19.08;60.65;101054.28;5016482;27;98744;-75
2023/05/11 01:56:43;;;;;;;10.27;8.32;;;;;;;19.02;60.89;101058.25;5027096;27;97216;-74
2023/05/11 01:59:13;;;;;;;13.65;8.02;;;;;;;18.76;61.48;101056.41;5030364;27;96860;-75
2023/05/11 02:01:41;;;;;;;17.55;9.23;;;;;;;18.59;62.41;101060.13;5026891;27;98948;-75
2023/05/11 02:04:09;;;;;;;18.67;9.23;;;;;;;18.34;63.31;101062.63;5024678;27;99292;-75
2023/05/11 02:06:38;;;;;;;13.25;9.23;;;;;;;18.28;63.58;101068.34;5030209;27;97553;-74
2023/05/11 02:09:07;;;;;;;12.13;8.88;;;;;;;18.37;63.37;101069.59;5028682;27;97192;-74
2023/05/11 02:11:35;;;;;;;13.40;9.27;;;;;;;18.30;63.52;101064.63;5024939;27;97913;-73
2023/05/11 02:14:04;;;;;;;15.80;10.05;;;;;;;18.23;63.78;101062.44;5025339;27;99909;-73
2023/05/11 02:16:32;;;;;;;16.73;9.68;;;;;;;18.35;63.36;101071.50;5023069;27;96922;-72
2023/05/11 02:18:59;;;;;;;15.18;9.55;;;;;;;18.36;63.33;101071.41;5018292;27;96906;-75
2023/05/11 02:21:28;;;;;;;11.98;9.43;;;;;;;18.24;63.70;101069.50;5022753;27;99243;-74
2023/05/11 02:23:55;;;;;;;15.20;9.70;;;;;;;18.32;63.73;101068.06;5025531;27;98807;-73
2023/05/11 02:26:22;;;;;;;13.90;10.35;;;;;;;18.43;63.18;101078.09;5019273;27;96833;-73
2023/05/11 02:28:48;;;;;;;11.88;9.90;;;;;;;18.18;63.88;101065.38;5026021;27;96954;-75
2023/05/11 02:31:18;;;;;;;14.75;10.43;;;;;;;18.22;63.68;101069.59;5018301;27;98130;-75
2023/05/11 02:33:49;;;;;;;16.65;10.57;;;;;;;18.14;63.87;101073.69;5017195;27;99672;-74
2023/05/11 02:36:20;;;;;;;16.30;10.93;;;;;;;18.20;63.65;101076.00;5024233;27;96873;-75
2023/05/11 02:38:50;;;;;;;17.95;11.50;;;;;;;18.12;63.95;101076.47;5020902;27;96940;-75
2023/05/11 02:41:24;;;;;;;17.48;11.38;;;;;;;18.05;64.32;101077.78;5028131;27;97770;-75
2023/05/11 02:43:54;;;;;;;14.57;10.27;;;;;;;18.06;64.41;101076.84;5016778;27;98881;-75
2023/05/11 02:46:23;;;;;;;19.38;11.30;;;;;;;18.06;64.26;101079.50;5018430;27;97177;-75
2023/05/11 02:48:55;;;;;;;16.45;11.27;;;;;;;18.16;63.50;101071.78;5018885;27;96799;-75
2023/05/11 02:51:24;;;;;;;13.63;9.57;;;;;;;18.42;62.39;101084.41;5020721;27;98800;-75
2023/05/11 02:53:56;;;;;;;17.17;9.93;;;;;;;18.35;62.28;101077.72;5019330;27;99997;-74
2023/05/11 02:56:24;;;;;;;12.80;9.35;;;;;;;18.42;61.17;101086.22;5020684;27;96995;-75
2023/05/11 02:58:50;;;;;;;14.75;9.57;;;;;;;18.65;60.38;101080.28;5018279;27;96997;-75
2023/05/11 03:01:17;;;;;;;13.45;8.50;;;;;;;18.69;59.05;101080.03;5023512;27;99487;-75
2023/05/11 03:03:44;;;;;;;10.98;8.00;;;;;;;18.68;58.24;101082.78;5021889;27;98860;-75
2023/05/11 03:06:10;;;;;;;10.07;7.53;;;;;;;18.49;57.64;101080.41;5026397;27;97243;-75
2023/05/11 03:08:36;;;;;;;10.55;7.03;;;;;;;18.37;57.23;101078.50;5016641;27;97143;-74
2023/05/11 03:11:05;;;;;;;11.27;7.68;;;;;;;18.55;56.60;101085.38;5022212;27;99393;-74
2023/05/11 03:13:32;;;;;;;7.68;6.85;;;;;;;18.39;56.69;101083.72;5015493;27;99111;-75
2023/05/11 03:16:01;;;;;;;8.45;7.00;;;;;;;18.52;56.16;101073.97;5020111;27;97176;-75
2023/05/11 03:18:29;;;;;;;10.77;7.43;;;;;;;18.33;57.02;101080.47;5027296;27;96949;-75
2023/05/11 03:20:59;;;;;;;10.30;7.45;;;;;;;18.30;57.58;101083.38;5017450;27;98000;-75
2023/05/11 03:23:26;;;;;;;9.45;7.43;;;;;;;18.35;56.88;101083.06;5020682;27;99040;-76
2023/05/11 03:25:53;;;;;;;8.43;6.85;;;;;;;18.45;55.60;101080.66;5026410;27;96855;-75
2023/05/11 03:28:22;;;;;;;10.55;6.53;;;;;;;18.29;56.30;101080.78;5024747;27;98727;-75
2023/05/11 03:30:52;;;;;;;12.30;6.90;;;;;;;18.24;56.17;101085.56;5023720;27;99135;-75
2023/05/11 03:33:19;;;;;;;9.63;6.63;;;;;;;18.55;55.65;101082.72;5022318;27;99621;-74
2023/05/11 03:35:49;;;;;;;13.57;7.38;;;;;;;18.51;54.94;101083.81;5023528;27;96807;-74
2023/05/11 03:38:17;;;;;;;9.88;7.47;;;;;;;18.29;55.48;101083.44;5021257;27;96957;-75
2023/05/11 03:40:44;;;;;;;7.35;6.57;;;;;;;18.34;55.02;101086.69;5023677;27;99245;-75
2023/05/11 03:43:14;;;;;;;9.02;6.35;;;;;;;18.29;54.99;101078.09;5018974;27;99231;-76
2023/05/11 03:45:44;;;;;;;12.10;7.55;;;;;;;18.31;54.67;101086.91;5020929;27;96850;-75
2023/05/11 03:48:14;;;;;;;9.63;7.13;;;;;;;18.30;55.04;101087.84;5020800;27;96905;-74
2023/05/11 03:50:41;;;;;;;10.30;7.32;;;;;;;18.38;54.11;101085.53;5022224;27;99259;-74
2023/05/11 03:53:07;;;;;;;8.60;6.45;;;;;;;18.59;53.54;101086.03;5019692;27;99174;-74
2023/05/11 03:55:34;;;;;;;12.50;5.95;;;;;;;18.83;52.63;101086.31;5019441;27;96789;-76
2023/05/11 03:58:00;;;;;;;7.28;6.28;;;;;;;18.60;52.45;101093.13;5026090;27;96865;-74
2023/05/11 04:00:27;;;;;;;8.30;6.20;;;;;;;18.49;52.19;101084.88;5026913;28;102600;-74
2023/05/11 04:02:54;;;;;;;7.13;6.07;;;;;;;18.51;52.16;101081.13;5026320;27;99082;-74
2023/05/11 04:05:21;;;;;;;12.43;6.50;;;;;;;18.40;52.19;101082.78;5031340;27;97971;-75
2023/05/11 04:07:47;;;;;;;6.68;6.07;;;;;;;18.43;51.89;101083.47;5026098;27;98669;-75
2023/05/11 04:10:14;;;;;;;8.82;6.07;;;;;;;18.45;51.45;101089.56;5031411;27;99127;-75
2023/05/11 04:12:40;;;;;;;9.65;6.28;;;;;;;18.38;51.37;101087.38;5021977;27;99525;-74
2023/05/11 04:15:08;;;;;;;8.38;5.82;;;;;;;18.45;51.08;101084.19;5028535;27;97659;-74
2023/05/11 04:17:34;;;;;;;8.63;6.30;;;;;;;18.49;51.05;101090.22;5024758;27;97046;-74
2023/05/11 04:20:02;;;;;;;14.05;5.53;;;;;;;18.43;51.17;101090.63;5031546;27;99205;-74
2023/05/11 04:22:28;;;;;;;7.78;6.10;;;;;;;18.47;50.76;101094.81;5019064;27;98941;-74
2023/05/11 04:24:54;;;;;;;8.50;5.90;;;;;;;18.53;50.36;101089.94;5029779;27;96797;-74
2023/05/11 04:27:21;;;;;;;8.27;5.80;;;;;;;18.68;49.88;101094.34;5027293;27;97559;-74
2023/05/11 04:29:47;;;;;;;7.95;5.75;;;;;;;18.65;49.60;101094.53;5029928;27;99025;-75
2023/05/11 04:32:14;;;;;;;9.00;6.30;;;;;;;18.90;49.13;101093.84;5024943;27;99737;-74
2023/05/11 04:34:40;;;;;;;11.35;5.68;;;;;;;18.91;48.71;101097.38;5032936;27;97492;-75
2023/05/11 04:37:08;;;;;;;12.10;5.80;;;;;;;18.93;48.65;101100.81;5028721;27;96999;-74
2023/05/11 04:39:35;;;;;;;8.10;6.18;;;;;;;18.82;48.57;101092.63;5022216;27;98883;-76
2023/05/11 04:42:01;;;;;;;12.55;5.47;;;;;;;18.89;48.21;101099.31;5024502;27;101367;-74
2023/05/11 04:44:28;;;;;;;9.73;5.75;;;;;;;19.04;47.95;101103.66;5027668;27;97016;-74
2023/05/11 04:46:55;;;;;;;7.43;5.70;;;;;;;19.15;47.39;101108.31;5026318;27;98476;-75
2023/05/11 04:49:21;;;;;;;9.32;5.68;;;;;;;19.25;47.23;101104.94;5024596;27;97656;-74
2023/05/11 04:51:48;;;;;;;8.73;5.82;;;;;;;19.49;46.76;101102.50;5027941;27;99081;-74
2023/05/11 04:54:16;;;;;;;8.20;5.47;;;;;;;19.36;46.69;101104.25;5027258;27;98528;-74
2023/05/11 04:56:42;;;;;;;22.33;7.15;;;;;;;19.54;46.18;101107.53;5024814;27;97024;-75
2023/05/11 04:59:09;;;;;;;11.18;5.60;;;;;;;19.60;45.97;101110.66;5020779;27;101923;-73
2023/05/11 05:01:36;;;;;;;9.45;5.88;;;;;;;19.58;45.92;101117.06;5015433;27;97857;-75
2023/05/11 05:04:02;;;;;;;6.65;5.20;;;;;;;19.61;45.47;101111.53;5024207;27;97573;-75
2023/05/11 05:06:29;;;;;;;11.82;6.20;;;;;;;19.50;46.12;101115.75;5023997;27;97654;-75
2023/05/11 05:08:55;;;;;;;7.78;5.45;;;;;;;19.56;45.54;101116.34;5023495;27;98840;-75
2023/05/11 05:11:23;;;;;;;8.85;6.05;;;;;;;19.68;45.01;101121.75;5022815;27;101562;-75
2023/05/11 05:13:50;;;;;;;10.80;5.10;;;;;;;19.71;45.06;101120.66;5021824;27;97903;-75
2023/05/11 05:16:16;;;;;;;8.65;5.38;;;;;;;19.68;44.76;101115.50;5019445;27;97404;-75
2023/05/11 05:18:43;;;;;;;7.45;4.82;;;;;;;20.00;44.19;101116.84;5021099;27;98970;-75
2023/05/11 05:21:09;;;;;;;6.53;5.25;;;;;;;20.01;43.74;101120.41;5019533;27;98421;-75
2023/05/11 05:23:36;;;;;;;11.00;5.30;;;;;;;19.96;43.73;101118.00;5025331;27;98167;-74
2023/05/11 05:26:02;;;;;;;6.50;4.70;;;;;;;19.96;44.19;101119.84;5027852;27;100629;-75
2023/05/11 05:28:30;;;;;;;7.82;5.18;;;;;;;20.08;43.35;101109.16;5018248;27;99031;-75
2023/05/11 05:30:56;;;;;;;9.63;5.28;;;;;;;20.06;43.91;101119.13;5022770;27;98983;-75
2023/05/11 05:33:22;;;;;;;9.85;4.63;;;;;;;20.21;43.09;101114.50;5018490;27;97869;-75
2023/05/11 05:35:49;;;;;;;12.00;5.30;;;;;;;20.26;43.16;101115.91;5021462;27;97115;-75
2023/05/11 05:38:15;;;;;;;7.70;5.38;;;;;;;20.42;42.42;101118.38;5015131;27;98913;-76
2023/05/11 05:40:42;;;;;;;10.32;6.00;;;;;;;20.82;41.93;101127.16;5025980;27;98093;-75
2023/05/11 05:43:08;;;;;;;10.13;5.40;;;;;;;21.01;41.63;101127.53;5026261;27;97236;-76
2023/05/11 05:45:37;;;;;;;11.43;5.38;;;;;;;20.67;41.69;101122.91;5023477;27;98765;-75
2023/05/11 05:48:04;;;;;;;15.10;5.50;;;;;;;20.85;41.75;101134.13;5021622;27;99332;-75
2023/05/11 05:50:31;;;;;;;9.95;5.70;;;;;;;20.73;41.76;101135.88;5026491;27;101336;-75
2023/05/11 05:52:58;;;;;;;15.60;6.13;;;;;;;20.54;42.01;101144.41;5031091;27;99720;-75
2023/05/11 05:55:24;;;;;;;8.35;5.18;;;;;;;20.64;42.10;101136.53;5026370;27;97191;-75
2023/05/11 05:57:51;;;;;;;10.77;5.65;;;;;;;20.78;41.99;101146.28;5030554;27;99147;-75
2023/05/11 06:00:17;;;;;;;6.28;4.65;;;;;;;20.68;42.06;101141.56;5029396;27;97551;-75
2023/05/11 06:02:45;;;;;;;7.60;4.72;;;;;;;20.90;41.72;101150.78;5027341;27;96928;-75
2023/05/11 06:05:12;;;;;;;16.35;5.47;;;;;;;20.94;41.55;101147.75;5030106;27;96842;-76
2023/05/11 06:07:38;;;;;;;9.23;5.22;;;;;;;21.13;41.19;101157.19;5026866;27;99024;-75
2023/05/11 06:10:05;;;;;;;4.65;4.15;;;;;;;21.09;41.26;101152.00;5021037;27;99177;-76
2023/05/11 06:12:32;;;;;;;10.98;4.88;;;;;;;21.27;41.21;101148.97;5016261;27;98426;-75
2023/05/11 06:14:58;;;;;;;9.48;5.20;;;;;;;21.44;40.26;101148.59;5025716;27;97000;-76
2023/05/11 06:17:27;;;;;;;12.68;4.93;;;;;;;21.64;39.98;101152.47;5029333;27;102078;-75
2023/05/11 06:19:55;;;;;;;8.25;4.35;;;;;;;21.73;39.86;101144.56;5024129;27;101737;-76
2023/05/11 06:22:21;;;;;;;9.25;4.70;;;;;;;21.85;39.63;101149.03;5022891;27;96903;-75
2023/05/11 06:24:47;;;;;;;14.10;4.82;;;;;;;22.07;38.90;101145.56;5033157;27;97465;-75
2023/05/11 06:27:14;;;;;;;12.13;4.78;;;;;;;21.95;39.04;101154.56;5024417;27;99204;-77
2023/05/11 06:29:41;;;;;;;6.47;4.35;;;;;;;22.09;38.81;101153.53;5019360;27;98167;-76
2023/05/11 06:32:07;;;;;;;10.30;4.20;;;;;;;22.27;38.31;101157.47;5028354;27;97968;-77
2023/05/11 06:34:34;;;;;;;9.63;3.95;;;;;;;22.39;38.00;101152.97;5020291;27;97564;-76
2023/05/11 06:37:02;;;;;;;8.02;4.20;;;;;;;22.24;37.41;101152.34;5029423;27;99022;-75
2023/05/11 06:39:28;;;;;;;4.82;3.58;;;;;;;22.27;37.66;101152.09;5025756;27;98901;-75
2023/05/11 06:41:54;;;;;;;8.85;4.10;;;;;;;22.56;37.04;101150.69;5026347;27;96768;-76
2023/05/11 06:44:21;;;;;;;9.27;4.15;;;;;;;22.72;36.95;101157.53;5025683;27;97586;-77
2023/05/11 06:46:47;;;;;;;7.82;3.63;;;;;;;22.94;36.47;101158.44;5024163;27;97904;-76
2023/05/11 06:49:14;;;;;;;6.72;3.40;;;;;;;23.14;36.08;101147.88;5010171;27;102026;-75
2023/05/11 06:51:41;;;;;;;7.95;3.60;;;;;;;23.01;35.72;101153.41;5022834;27;97605;-74
2023/05/11 06:54:08;;;;;;;9.13;3.60;;;;;;;23.05;35.39;101144.94;5015177;27;97917;-75
2023/05/11 06:56:36;;;;;;;5.32;3.65;;;;;;;22.97;36.01;101151.94;5015501;27;99505;-76
2023/05/11 06:59:02;;;;;;;6.70;4.00;;;;;;;23.48;35.39;101148.69;5018434;27;101229;-75
2023/05/11 07:01:28;;;;;;;9.63;4.32;;;;;;;23.34;35.29;101156.03;5009017;27;98511;-77
2023/05/11 07:03:55;;;;;;;4.97;3.50;;;;;;;23.38;35.23;101151.22;5024288;27;97118;-75
2023/05/11 07:06:22;;;;;;;5.07;2.58;;;;;;;23.49;34.02;101158.47;5023129;27;99204;-75
2023/05/11 07:08:48;;;;;;;4.13;2.85;;;;;;;23.37;34.43;101146.81;5011662;27;98804;-74
2023/05/11 07:11:16;;;;;;;8.65;2.85;;;;;;;23.71;33.67;101150.28;5017570;27;97183;-76
2023/05/11 07:13:45;;;;;;;11.05;3.33;;;;;;;23.94;33.44;101142.97;5026060;27;97527;-74
2023/05/11 07:16:11;;;;;;;4.55;2.92;;;;;;;23.78;33.09;101152.34;5026947;27;99047;-75
2023/05/11 07:18:38;;;;;;;2.92;2.30;;;;;;;23.86;33.20;101148.16;5022288;27;99904;-75
2023/05/11 07:21:04;;;;;;;8.25;2.80;;;;;;;24.43;32.44;101145.88;5027247;27;96755;-75
2023/05/11 07:23:31;;;;;;;5.60;2.53;;;;;;;24.76;32.23;101155.56;5013849;27;97448;-76
2023/05/11 07:25:57;;;;;;;6.50;2.75;;;;;;;24.81;32.25;101156.00;5015247;27;98138;-76
2023/05/11 07:28:25;;;;;;;10.18;2.60;;;;;;;24.81;31.44;101153.28;5018943;27;99502;-76
2023/05/11 07:30:51;;;;;;;7.40;2.75;;;;;;;24.65;31.51;101152.09;5025878;27;97930;-76
2023/05/11 07:33:18;;;;;;;8.27;3.05;;;;;;;24.81;31.22;101156.00;5014271;27;98008;-76
2023/05/11 07:35:44;;;;;;;8.13;3.03;;;;;;;24.69;31.11;101154.38;5028071;27;101351;-75
2023/05/11 07:38:12;;;;;;;7.82;2.60;;;;;;;24.56;31.95;101146.50;5028881;27;98475;-75
2023/05/11 07:40:39;;;;;;;7.15;2.90;;;;;;;24.49;32.40;101144.47;5017448;27;97018;-75
2023/05/11 07:43:05;;;;;;;3.38;2.80;;;;;;;24.79;31.77;101155.31;5028350;27;98622;-76
2023/05/11 07:45:33;;;;;;;6.28;2.90;;;;;;;24.77;31.69;101151.88;5023386;27;99906;-77
2023/05/11 07:47:59;;;;;;;25.95;4.55;;;;;;;25.05;31.72;101154.84;5023027;27;98789;-75
2023/05/11 07:50:26;;;;;;;4.75;2.55;;;;;;;25.05;30.54;101154.84;5019740;27;97085;-76
2023/05/11 07:52:52;;;;;;;4.53;2.50;;;;;;;24.77;31.53;101151.88;5023648;27;97504;-77
2023/05/11 07:55:23;;;;;;;6.63;2.75;;;;;;;24.85;31.66;101153.91;5028817;27;98305;-75
2023/05/11 07:57:50;;;;;;;6.43;2.70;;;;;;;24.74;31.72;101146.75;5028217;27;100069;-75
2023/05/11 08:00:18;;;;;;;4.32;2.63;;;;;;;25.07;31.06;101145.63;5025372;27;96777;-75
2023/05/11 08:02:46;;;;;;;6.72;2.72;;;;;;;25.54;31.13;101143.97;5024318;27;99020;-76
2023/05/11 08:05:12;;;;;;;10.00;2.53;;;;;;;25.01;30.95;101146.16;5030569;27;99582;-75
2023/05/11 08:07:39;;;;;;;4.15;2.30;;;;;;;25.36;30.92;101143.81;5024784;27;98929;-75
2023/05/11 08:10:07;;;;;;;8.90;2.60;;;;;;;25.38;30.73;101141.00;5012994;27;98999;-75
2023/05/11 08:12:35;;;;;;;3.40;2.22;;;;;;;25.99;30.06;101138.06;5006749;27;98578;-75
2023/05/11 08:15:02;;;;;;;5.35;2.20;;;;;;;26.14;29.51;101144.72;5010055;27;99439;-76
2023/05/11 08:17:38;;;;;;;7.57;2.40;;;;;;;25.83;29.60;101138.63;5026718;27;99133;-76
2023/05/11 08:20:07;;;;;;;11.27;2.60;;;;;;;26.02;29.20;101140.44;5022489;27;97191;-76
2023/05/11 08:22:36;;;;;;;6.90;2.70;;;;;;;26.28;28.28;101144.28;5021427;27;97748;-76
2023/05/11 08:25:02;;;;;;;5.45;2.20;;;;;;;26.51;27.94;101140.25;5028097;27;99273;-77
2023/05/11 08:27:29;;;;;;;6.55;2.60;;;;;;;26.02;28.72;101143.16;5022068;27;97627;-77
2023/05/11 08:29:55;;;;;;;4.32;2.20;;;;;;;25.76;29.42;101141.03;5017599;27;97204;-75
2023/05/11 08:32:21;;;;;;;4.20;2.65;;;;;;;25.85;29.26;101143.91;5020275;27;97483;-75
2023/05/11 08:34:48;;;;;;;5.20;2.20;;;;;;;26.43;28.46;101137.41;5027682;27;99029;-76
2023/05/11 08:37:16;;;;;;;3.38;2.25;;;;;;;26.30;28.50;101139.59;5024051;27;98951;-75
2023/05/11 08:39:43;;;;;;;10.32;2.33;;;;;;;26.13;28.92;101145.69;5018318;27;97296;-76
2023/05/11 08:42:09;;;;;;;4.80;2.25;;;;;;;26.36;28.95;101135.44;5018444;27;97312;-76
2023/05/11 08:44:38;;;;;;;11.05;2.58;;;;;;;26.47;28.89;101144.25;5022860;27;99011;-76
2023/05/11 08:47:06;;;;;;;3.65;2.50;;;;;;;26.25;28.50;101146.44;5030983;27;97615;-76
2023/05/11 08:49:33;;;;;;;6.90;2.28;;;;;;;26.42;28.85;101138.41;5018711;27;97353;-76
2023/05/11 08:52:04;;;;;;;3.83;2.35;;;;;;;26.32;29.19;101132.16;5020288;27;97491;-75
2023/05/11 08:54:32;;;;;;;3.42;2.25;;;;;;;26.23;28.79;101138.44;5020723;27;98239;-76
2023/05/11 08:57:01;;;;;;;6.68;2.10;;;;;;;26.26;28.63;101135.44;5021549;27;99527;-77
2023/05/11 08:59:28;;;;;;;4.82;2.85;;;;;;;26.63;28.70;101132.78;5016422;27;97068;-75
2023/05/11 09:01:56;;;;;;;3.28;2.40;;;;;;;26.62;28.60;101133.78;5017022;27;98601;-75
2023/05/11 09:04:25;;;;;;;7.20;2.35;;;;;;;26.95;28.20;101138.66;5020597;27;99301;-75
2023/05/11 09:06:52;;;;;;;5.97;2.30;;;;;;;27.15;27.88;101125.84;5024668;27;98737;-75
2023/05/11 09:09:18;;;;;;;4.55;2.58;;;;;;;27.09;27.75;101126.44;5021246;27;96814;-76
2023/05/11 09:11:47;;;;;;;7.45;2.72;;;;;;;27.38;27.58;101129.81;5023039;27;97278;-75
2023/05/11 09:14:13;;;;;;;5.43;2.33;;;;;;;27.14;27.54;101120.56;5012217;27;99062;-77
2023/05/11 09:16:40;;;;;;;5.25;2.28;;;;;;;27.15;27.58;101130.41;5017417;27;99408;-77
2023/05/11 09:19:06;;;;;;;7.43;2.17;;;;;;;26.92;27.46;101127.25;5024914;27;98045;-78
2023/05/11 09:21:33;;;;;;;3.95;2.05;;;;;;;26.89;27.49;101131.13;5022005;27;97328;-77
2023/05/11 09:24:00;;;;;;;7.65;2.25;;;;;;;26.50;27.44;101130.41;5019386;27;99315;-79
2023/05/11 09:26:28;;;;;;;3.05;2.03;;;;;;;26.32;28.29;101120.50;5016718;27;100003;-78
2023/05/11 09:28:57;;;;;;;4.90;2.28;;;;;;;26.76;27.03;101127.88;5016291;27;98323;-78
2023/05/11 09:31:35;;;;;;;5.43;2.50;;;;;;;27.13;26.61;101130.56;5019880;27;98896;-78
2023/05/11 09:34:13;;;;;;;2.95;1.80;;;;;;;27.27;26.04;101126.47;5011834;27;99272;-78
2023/05/11 09:36:40;;;;;;;7.50;2.33;;;;;;;27.44;25.22;101131.06;5020405;27;99060;-78
2023/05/11 09:39:07;;;;;;;5.85;1.95;;;;;;;27.05;25.86;101137.72;5013644;28;98899;-77
2023/05/11 09:41:33;;;;;;;5.28;1.80;;;;;;;27.12;25.94;101138.84;5028301;27;96922;-77
2023/05/11 09:44:09;;;;;;;4.63;1.95;;;;;;;26.85;25.78;101131.53;5016762;27;99512;-78
2023/05/11 09:46:36;;;;;;;10.35;2.00;;;;;;;26.64;26.31;101130.94;5028056;27;98932;-78
2023/05/11 09:49:04;;;;;;;3.97;2.00;;;;;;;26.20;26.13;101122.47;5018272;27;99314;-77
2023/05/11 09:51:31;;;;;;;12.32;2.17;;;;;;;26.48;26.35;101126.13;5022490;27;97104;-77
2023/05/11 09:53:59;;;;;;;4.50;1.80;;;;;;;26.68;25.66;101135.91;5015910;27;99759;-77
2023/05/11 09:56:44;;;;;;;2.92;1.88;;;;;;;26.80;25.21;101123.00;5019056;27;99358;-78
2023/05/11 09:59:12;;;;;;;7.03;2.03;;;;;;;26.78;25.50;101125.84;5029006;27;97854;-78
2023/05/11 10:01:38;;;;;;;2.83;2.22;;;;;;;26.58;26.28;101125.06;5015323;27;97783;-77
2023/05/11 10:04:07;;;;;;;6.40;2.03;;;;;;;25.98;26.75;101117.38;5023528;27;99042;-78
2023/05/11 10:06:47;;;;;;;6.78;2.00;;;;;;;26.25;27.16;101117.50;5013269;27;98769;-78
2023/05/11 10:09:15;;;;;;;8.73;1.50;;;;;;;26.28;26.33;101125.31;5024626;27;97071;-77
2023/05/11 10:11:44;;;;;;;6.13;2.00;;;;;;;26.08;26.05;101124.47;5023945;27;96907;-77
2023/05/11 10:14:13;;;;;;;3.25;1.30;;;;;;;26.18;26.06;101127.19;5018316;27;98916;-77
2023/05/11 10:16:41;;;;;;;1.50;1.40;;;;;;;26.34;25.86;101108.47;5011886;28;99093;-77
2023/05/11 10:19:08;;;;;;;4.75;1.70;;;;;;;26.37;25.16;101118.19;5021581;27;97592;-77
2023/05/11 10:21:35;;;;;;;3.28;1.25;;;;;;;26.30;25.09;101109.78;5019166;27;97312;-77
2023/05/11 10:24:03;;;;;;;5.22;1.33;;;;;;;26.20;25.49;101115.19;5018638;27;99079;-77
2023/05/11 10:26:31;;;;;;;2.63;1.60;;;;;;;26.24;25.29;101112.19;5012648;27;99437;-77
2023/05/11 10:28:59;;;;;;;4.35;1.60;;;;;;;26.27;25.47;101120.03;5022879;27;97270;-77
2023/05/11 10:31:26;;;;;;;1.50;1.40;;;;;;;25.97;25.62;101107.53;5018814;27;97234;-78
2023/05/11 10:33:53;;;;;;;11.52;2.47;;;;;;;26.19;25.12;101107.19;5019860;27;98051;-77
2023/05/11 10:36:23;;;;;;;4.22;1.63;;;;;;;26.38;24.99;101104.50;5016079;27;98903;-77
2023/05/11 10:38:50;;;;;;;2.40;1.48;;;;;;;26.33;25.13;101112.19;5017778;27;97668;-77
2023/05/11 10:41:33;;;;;;;5.88;1.73;;;;;;;26.39;25.60;101105.31;5017396;27;97339;-78
2023/05/11 10:44:34;;;;;;;4.13;1.30;;;;;;;26.47;24.94;101109.00;5019475;27;99077;-77
2023/05/11 10:47:21;;;;;;;6.57;1.50;;;;;;;26.62;24.61;101111.25;5009566;27;99449;-76
2023/05/11 10:50:07;;;;;;;14.43;2.10;;;;;;;26.83;24.78;101112.72;5010265;27;98895;-76
2023/05/11 10:52:58;;;;;;;8.30;1.83;;;;;;;26.93;24.40;101099.13;5011903;27;99065;-78
2023/05/11 10:55:36;;;;;;;1.70;1.60;;;;;;;27.31;24.24;101101.59;5016380;27;102103;-78
2023/05/11 10:58:09;;;;;;;4.25;1.55;;;;;;;27.35;24.15;101108.44;5018772;27;99086;-76
2023/05/11 11:01:21;;;;;;;5.40;1.50;;;;;;;27.02;24.41;101095.53;5017078;27;97642;-77
2023/05/11 11:04:01;;;;;;;3.83;1.90;;;;;;;26.74;24.99;101108.19;5016123;27;97682;-77
2023/05/11 11:06:28;;;;;;;4.82;1.52;;;;;;;27.03;24.90;101102.66;5011674;27;98660;-77
2023/05/11 11:08:56;;;;;;;9.20;1.77;;;;;;;27.40;24.74;101098.97;5015483;27;99684;-77
2023/05/11 11:11:30;;;;;;;6.68;1.42;;;;;;;27.52;24.58;101100.47;5014940;27;97348;-78
2023/05/11 11:13:58;;;;;;;2.95;1.60;;;;;;;27.79;24.09;101100.38;5017910;27;98373;-77
2023/05/11 11:16:25;;;;;;;1.70;1.20;;;;;;;27.56;23.91;101099.16;5018565;27;99382;-77
2023/05/11 11:18:51;;;;;;;3.33;1.63;;;;;;;27.67;23.84;101096.22;5007984;27;99618;-77
2023/05/11 11:21:41;;;;;;;4.72;1.52;;;;;;;27.93;23.19;101090.81;5011133;27;98122;-77
2023/05/11 11:24:07;;;;;;;1.95;1.42;;;;;;;27.76;23.77;101096.09;5010250;27;98484;-78
2023/05/11 11:26:48;;;;;;;4.32;1.70;;;;;;;27.80;24.04;101099.38;5010624;27;99019;-78
2023/05/11 11:29:14;;;;;;;3.08;1.50;;;;;;;28.07;23.86;101088.38;5006369;27;98613;-74